createdAt,value
2022-11-22T00:03:22.792Z,100.00
2022-11-22T00:08:22.782Z,100.00
2022-11-22T00:13:22.897Z,100.00
2022-11-22T00:18:22.865Z,100.00
2022-11-22T00:23:23.002Z,100.00
2022-11-22T00:28:22.802Z,100.00
2022-11-22T00:33:22.966Z,100.00
2022-11-22T00:43:22.962Z,100.00
2022-11-22T00:48:22.907Z,100.00
2022-11-22T00:53:22.936Z,100.00
2022-11-22T00:58:22.802Z,100.00
2022-11-22T01:03:22.895Z,100.00
2022-11-22T01:08:22.786Z,100.00
2022-11-22T01:13:22.837Z,100.00
2022-11-22T01:18:23.005Z,100.00
2022-11-22T01:23:23.121Z,100.00
2022-11-22T01:28:22.789Z,100.00
2022-11-22T01:33:23.118Z,100.00
2022-11-22T01:38:22.908Z,100.00
2022-11-22T01:43:23.084Z,100.00
2022-11-22T01:48:22.845Z,100.00
2022-11-22T01:53:23.061Z,100.00
2022-11-22T01:58:22.832Z,100.00
2022-11-22T02:03:22.829Z,100.00
2022-11-22T02:08:23.166Z,100.00
2022-11-22T02:13:22.809Z,100.00
2022-11-22T02:18:23.135Z,100.00
2022-11-22T02:23:22.982Z,100.00
2022-11-22T02:28:23.105Z,100.00
2022-11-22T02:33:22.938Z,100.00
2022-11-22T02:38:23.066Z,100.00
2022-11-22T02:43:22.863Z,100.00
2022-11-22T02:48:23.018Z,100.00
2022-11-22T02:53:22.859Z,100.00
2022-11-22T02:58:22.874Z,100.00
2022-11-22T03:03:22.886Z,100.00
2022-11-22T03:08:22.995Z,100.00
2022-11-22T03:13:22.856Z,100.00
2022-11-22T03:18:23.274Z,100.00
2022-11-22T03:23:23.104Z,100.00
2022-11-22T03:28:22.880Z,100.00
2022-11-22T03:33:22.885Z,100.00
2022-11-22T03:38:22.851Z,100.00
2022-11-22T03:43:23.053Z,100.00
2022-11-22T03:48:23.184Z,100.00
2022-11-22T03:53:22.859Z,100.00
2022-11-22T03:58:23.126Z,100.00
2022-11-22T04:03:22.943Z,100.00
2022-11-22T04:08:22.882Z,100.00
2022-11-22T04:13:22.885Z,100.00
2022-11-22T04:18:23.406Z,100.00
2022-11-22T04:23:22.861Z,100.00
2022-11-22T04:28:35.356Z,100.00
2022-11-22T04:33:23.183Z,100.00
2022-11-22T04:38:22.892Z,100.00
2022-11-22T04:43:23.136Z,100.00
2022-11-22T04:48:22.942Z,100.00
2022-11-22T04:53:23.167Z,100.00
2022-11-22T04:58:22.931Z,100.00
2022-11-22T05:03:23.098Z,100.00
2022-11-22T05:08:22.907Z,100.00
2022-11-22T05:13:22.912Z,100.00
2022-11-22T05:18:22.916Z,100.00
2022-11-22T05:23:23.050Z,100.00
2022-11-22T05:28:22.903Z,100.00
2022-11-22T05:33:23.025Z,100.00
2022-11-22T05:38:23.259Z,100.00
2022-11-22T05:43:22.919Z,100.00
2022-11-22T05:48:22.942Z,100.00
2022-11-22T05:53:23.180Z,100.00
2022-11-22T05:58:22.947Z,100.00
2022-11-22T06:03:22.937Z,100.00
2022-11-22T06:08:22.947Z,100.00
2022-11-22T06:13:22.916Z,100.00
2022-11-22T06:18:22.955Z,100.00
2022-11-22T06:28:23.259Z,100.00
2022-11-22T06:33:23.139Z,100.00
2022-11-22T06:38:23.052Z,100.00
2022-11-22T06:43:22.966Z,100.00
2022-11-22T06:48:22.935Z,100.00
2022-11-22T06:53:45.784Z,100.00
2022-11-22T06:58:23.226Z,100.00
2022-11-22T07:03:22.976Z,100.00
2022-11-22T07:08:23.167Z,100.00
2022-11-22T07:13:23.037Z,100.00
2022-11-22T07:18:23.154Z,100.00
2022-11-22T07:23:22.931Z,100.00
2022-11-22T07:28:23.110Z,100.00
2022-11-22T07:38:23.116Z,100.00
2022-11-22T07:43:23.252Z,100.00
2022-11-22T07:48:22.980Z,100.00
2022-11-22T07:53:23.284Z,99.83
2022-11-22T07:58:23.048Z,100.00
2022-11-22T08:03:28.692Z,100.00
2022-11-22T08:08:22.976Z,100.00
2022-11-22T08:13:23.146Z,100.00
2022-11-22T08:18:23.305Z,100.00
2022-11-22T08:23:23.037Z,100.00
2022-11-22T08:28:22.970Z,100.00
2022-11-22T08:33:23.001Z,100.00
2022-11-22T08:38:23.470Z,100.00
2022-11-22T08:43:23.453Z,100.00
2022-11-22T08:53:23.007Z,100.00
2022-11-22T08:58:23.186Z,100.00
2022-11-22T09:03:23.329Z,100.00
2022-11-22T09:08:23.146Z,100.00
2022-11-22T09:13:22.999Z,100.00
2022-11-22T09:18:23.040Z,100.00
2022-11-22T09:23:22.970Z,99.39
2022-11-22T09:28:23.070Z,99.39
2022-11-22T09:33:23.055Z,98.72
2022-11-22T09:38:23.120Z,98.03
2022-11-22T09:43:23.070Z,98.11
2022-11-22T09:48:23.442Z,98.11
2022-11-22T09:53:23.032Z,98.26
2022-11-22T09:58:23.068Z,98.69
2022-11-22T10:03:23.481Z,98.52
2022-11-22T10:08:23.234Z,97.44
2022-11-22T10:13:23.123Z,96.64
2022-11-22T10:18:23.123Z,95.91
2022-11-22T10:23:23.075Z,95.91
2022-11-22T10:28:23.403Z,95.83
2022-11-22T10:33:23.336Z,95.83
2022-11-22T10:38:23.030Z,94.66
2022-11-22T10:43:23.348Z,93.34
2022-11-22T10:48:23.136Z,93.34
2022-11-22T10:53:23.749Z,92.59
2022-11-22T10:58:23.033Z,94.00
2022-11-22T11:03:23.275Z,94.00
2022-11-22T11:08:47.621Z,95.47
2022-11-22T11:13:23.246Z,96.31
2022-11-22T11:18:23.315Z,96.31
2022-11-22T11:23:24.689Z,97.30
2022-11-22T11:28:24.951Z,97.57
2022-11-22T11:33:23.184Z,97.11
2022-11-22T11:38:23.085Z,96.83
2022-11-22T11:43:23.103Z,97.22
2022-11-22T11:53:23.207Z,97.43
2022-11-22T11:58:23.382Z,96.94
2022-11-22T12:03:23.387Z,97.21
2022-11-22T12:08:23.303Z,97.21
2022-11-22T12:13:23.677Z,96.90
2022-11-22T12:18:23.367Z,96.90
2022-11-22T12:23:23.263Z,97.15
2022-11-22T12:28:23.596Z,96.76
2022-11-22T12:33:23.173Z,97.46
2022-11-22T12:38:23.253Z,97.61
2022-11-22T12:48:24.423Z,98.67
2022-11-22T12:53:23.209Z,98.18
2022-11-22T12:58:23.105Z,98.18
2022-11-22T13:03:23.209Z,97.69
2022-11-22T13:08:23.365Z,98.55
2022-11-22T13:13:23.191Z,99.35
2022-11-22T13:18:23.690Z,99.35
2022-11-22T13:23:23.091Z,98.77
2022-11-22T13:28:23.123Z,98.77
2022-11-22T13:33:23.065Z,98.69
2022-11-22T13:38:23.295Z,98.63
2022-11-22T13:43:23.415Z,98.65
2022-11-22T13:48:23.118Z,98.65
2022-11-22T13:53:23.113Z,97.93
2022-11-22T13:58:23.093Z,98.83
2022-11-22T14:03:23.125Z,98.51
2022-11-22T14:08:23.126Z,98.59
2022-11-22T14:13:23.141Z,98.60
2022-11-22T14:18:23.112Z,98.79
2022-11-22T14:23:23.302Z,98.25
2022-11-22T14:28:23.160Z,98.25
2022-11-22T14:33:23.310Z,98.37
2022-11-22T14:38:28.345Z,97.97
2022-11-22T14:43:23.214Z,97.97
2022-11-22T14:48:23.133Z,98.22
2022-11-22T14:53:23.134Z,97.98
2022-11-22T14:58:23.318Z,97.43
2022-11-22T15:03:23.146Z,97.64
2022-11-22T15:09:28.674Z,97.50
2022-11-22T15:58:23.473Z,95.72
2022-11-22T16:03:23.430Z,95.56
2022-11-22T16:08:26.626Z,95.36
2022-11-22T16:13:23.152Z,95.36
2022-11-22T16:18:23.376Z,95.01
2022-11-22T16:23:23.249Z,95.01
2022-11-22T16:33:23.967Z,94.23
2022-11-22T16:38:23.408Z,94.23
2022-11-22T16:43:23.516Z,94.19
2022-11-22T16:48:31.901Z,94.77
2022-11-22T16:53:24.175Z,95.25
2022-11-22T16:58:23.424Z,95.10
2022-11-22T17:03:25.298Z,94.43
2022-11-22T17:08:23.373Z,94.00
2022-11-22T17:13:23.626Z,93.18
2022-11-22T17:18:23.456Z,92.66
2022-11-22T17:23:23.312Z,92.67
2022-11-22T17:28:23.680Z,92.43
2022-11-22T17:33:23.573Z,91.99
2022-11-22T17:38:23.707Z,91.99
2022-11-22T17:43:23.535Z,91.67
2022-11-22T17:48:23.413Z,91.98
2022-11-22T17:53:23.497Z,91.28
2022-11-22T17:58:25.662Z,90.96
2022-11-22T18:03:24.561Z,90.98
2022-11-22T18:08:23.397Z,91.54
2022-11-22T18:13:23.465Z,91.28
2022-11-22T18:18:54.553Z,91.28
2022-11-22T18:28:23.595Z,90.47
2022-11-22T18:33:23.732Z,90.47
2022-11-22T18:38:23.511Z,90.11
2022-11-22T18:43:23.703Z,89.79
2022-11-22T18:48:23.455Z,90.12
2022-11-22T18:53:24.240Z,89.93
2022-11-22T18:58:23.582Z,89.93
2022-11-22T19:03:23.236Z,90.38
2022-11-22T19:08:23.184Z,89.75
2022-11-22T19:18:23.446Z,89.72
2022-11-22T19:23:24.372Z,89.41
2022-11-22T19:28:23.728Z,89.41
2022-11-22T19:33:23.488Z,89.59
2022-11-22T19:38:23.718Z,89.78
2022-11-22T19:43:23.653Z,90.16
2022-11-22T19:53:23.804Z,90.75
2022-11-22T19:58:23.998Z,90.91
2022-11-22T20:03:23.526Z,91.13
2022-11-22T20:08:23.602Z,91.13
2022-11-22T20:13:23.937Z,91.49
2022-11-22T20:18:23.562Z,91.15
2022-11-22T20:23:23.286Z,92.19
2022-11-22T20:28:23.291Z,92.88
2022-11-22T20:33:24.452Z,93.83
2022-11-22T20:38:23.972Z,93.97
2022-11-22T20:43:23.636Z,93.97
2022-11-22T20:48:23.830Z,93.42
2022-11-22T20:53:23.748Z,93.19
2022-11-22T20:58:23.758Z,93.80
2022-11-22T21:03:23.284Z,93.99
2022-11-22T21:08:23.653Z,93.99
2022-11-22T21:13:23.313Z,94.41
2022-11-22T21:18:25.771Z,94.41
2022-11-22T21:23:23.424Z,94.80
2022-11-22T21:28:23.281Z,95.02
2022-11-22T21:33:23.250Z,95.33
2022-11-22T21:38:29.645Z,94.84
2022-11-22T21:43:23.344Z,96.28
2022-11-22T21:48:23.288Z,97.06
2022-11-22T21:53:23.500Z,97.44
2022-11-22T21:58:23.328Z,98.67
2022-11-22T22:03:23.440Z,98.67
2022-11-22T22:08:23.413Z,98.77
2022-11-22T22:13:23.448Z,98.77
2022-11-22T22:23:23.665Z,99.89
2022-11-22T22:33:23.389Z,100.00
2022-11-22T22:38:23.488Z,100.00
2022-11-22T22:43:23.352Z,100.00
2022-11-22T22:53:23.293Z,100.00
2022-11-22T22:58:23.429Z,100.00
2022-11-22T23:08:23.380Z,100.00
2022-11-22T23:13:23.309Z,100.00
2022-11-22T23:18:23.404Z,100.00
2022-11-22T23:23:23.338Z,100.00
2022-11-22T23:28:23.325Z,100.00
2022-11-22T23:33:23.327Z,100.00
2022-11-22T23:38:23.624Z,100.00
2022-11-22T23:43:23.433Z,100.00
2022-11-22T23:48:23.611Z,100.00
2022-11-22T23:53:23.421Z,100.00
2022-11-22T23:58:23.339Z,100.00
